Flight Track Log - Related Links

Times and Time Zones

All times are in EST time to prevent confusion due to time zone crossing. See the N523JM flight status page for this flight to view local times or setup timezone preferences in your user account.

Time Position Orientation Groundspeed Altitude Reporting Facility
EST Latitude Longitude Course Direction KTS MPH feet Rate Location/Type
Fri 11:30:34 AM 40.0769 -83.0942 177° South 174 200 1,400  Level Indianapolis Center
Fri 11:31:28 AM 40.0675 -83.1647 260° West 234 269 3,600 2,795 Climbing Indianapolis Center
Fri 11:31:47 AM 40.0481 -83.1769 206° Southwest 257 296 4,800 2,903 Climbing Indianapolis Center
Fri 11:32:30 AM 40.0006 -83.1606 165° South 258 297 6,600 2,457 Climbing Indianapolis Center
Fri 11:33:32 AM 39.9256 -83.1164 156° South 289 333 9,100 2,855 Climbing Indianapolis Center
Fri 11:34:34 AM 39.8594 -83.0461 141° Southeast 302 348 12,500 2,806 Climbing Indianapolis Center
Fri 11:35:36 AM 39.7953 -82.9756 140° Southeast 301 346 14,900 2,177 Climbing Indianapolis Center
Fri 11:36:00 AM 39.4345 -82.9997 177° South  Level Estimated
Fri 11:36:38 AM 39.7275 -82.8994 139° Southeast 317 365 17,000  Level Indianapolis Center
Fri 11:37:40 AM 39.6533 -82.8197 140° Southeast 342 394 19,000 2,226 Climbing Indianapolis Center
Fri 11:38:42 AM 39.5453 -82.7944 170° South 326 375 21,600 2,032 Climbing Indianapolis Center
Fri 11:39:44 AM 39.4506 -82.7753 171° South 341 392 23,200 1,548 Climbing Indianapolis Center
Fri 11:40:46 AM 39.3494 -82.7533 170° South 364 419 24,800 1,500 Climbing Indianapolis Center
Fri 11:41:48 AM 39.2431 -82.7328 171° South 382 440 26,300 1,452 Climbing Indianapolis Center
Fri 11:42:50 AM 39.1436 -82.7106 170° South 384 442 27,800 1,500 Climbing Indianapolis Center
Fri 11:43:52 AM 39.0136 -82.6847 171° South 392 451 29,400 1,258 Climbing Indianapolis Center
Fri 11:44:54 AM 38.9022 -82.6631 171° South 402 463 30,400 1,016 Climbing Indianapolis Center
Fri 11:45:56 AM 38.7883 -82.6403 171° South 412 474 31,500 1,113 Climbing Indianapolis Center
Fri 11:46:58 AM 38.6753 -82.6178 171° South 412 474 32,700 1,258 Climbing Indianapolis Center
Fri 11:48:00 AM 38.5547 -82.5947 171° South 409 471 34,100 1,258 Climbing Indianapolis Center
Fri 11:49:02 AM 38.4456 -82.5722 171° South 399 459 35,300 919 Climbing Indianapolis Center
Fri 11:50:04 AM 38.3397 -82.5522 172° South 386 444 36,000 341 Climbing Indianapolis Center
Fri 11:51:05 AM 38.2106 -82.5278 172° South 400 460 36,000  Level Indianapolis Center
Fri 11:52:07 AM 38.0931 -82.5028 170° South 423 487 36,000  Level Indianapolis Center
Fri 11:53:09 AM 37.9706 -82.4797 172° South 440 506 36,000  Level Indianapolis Center
Fri 11:54:11 AM 37.8442 -82.4536 171° South 455 524 36,000  Level Indianapolis Center
Fri 11:55:13 AM 37.7144 -82.4289 171° South 467 537 36,000  Level Indianapolis Center
Fri 11:56:15 AM 37.5836 -82.4036 171° South 472 543 36,000  Level Indianapolis Center
Fri 11:57:17 AM 37.4303 -82.3750 172° South 474 545 36,000  Level Indianapolis Center
Fri 11:58:19 AM 37.2972 -82.3489 171° South 479 551 36,000  Level Indianapolis Center
Fri 11:59:21 AM 37.1636 -82.3231 171° South 481 554 36,000  Level Indianapolis Center
Fri 12:00:22 PM 37.0303 -82.2972 171° South 479 551 36,000  Level Indianapolis Center
Fri 12:01:24 PM 36.8975 -82.2731 172° South 479 551 36,000  Level Indianapolis Center
Fri 12:02:26 PM 36.7642 -82.2472 171° South 478 550 36,000  Level Indianapolis Center
Fri 12:03:28 PM 36.6303 -82.2231 172° South 481 554 36,000  Level Indianapolis Center
Fri 12:04:30 PM 36.4972 -82.1972 171° South 481 554 36,000  Level Indianapolis Center
Fri 12:05:32 PM 36.3411 -82.1683 172° South 482 555 36,000  Level Indianapolis Center
Fri 12:06:34 PM 36.2061 -82.1431 171° South 486 559 36,000  Level Indianapolis Center
Fri 12:07:36 PM 36.0717 -82.1183 172° South 485 558 36,000  Level Indianapolis Center
Fri 12:08:54 PM 35.9072 -82.0903 172° South 484 557 36,000  Level Atlanta Center
Fri 12:09:54 PM 35.7711 -82.0656 172° South 489 563 36,000  Level Atlanta Center
Fri 12:10:54 PM 35.6394 -82.0406 171° South 489 563 36,000  Level Atlanta Center
Fri 12:11:54 PM 35.5033 -82.0183 172° South 489 563 36,000  Level Atlanta Center
Fri 12:12:54 PM 35.3675 -81.9911 171° South 489 563 36,000  Level Atlanta Center
Fri 12:13:54 PM 35.2314 -81.9689 172° South 489 563 36,000  Level Atlanta Center
Fri 12:14:54 PM 35.0975 -81.9444 172° South 489 563 36,000  Level Atlanta Center
Fri 12:15:54 PM 34.9597 -81.9403 179° South 489 563 36,000  Level Atlanta Center
Fri 12:16:54 PM 34.8181 -81.9667 189° South 471 542 36,000  Level Atlanta Center
Fri 12:17:54 PM 34.6872 -81.9900 188° South 478 550 36,000  Level Atlanta Center
Fri 12:18:54 PM 34.5581 -82.0133 188° South 478 550 36,000  Level Atlanta Center
Fri 12:19:54 PM 34.4333 -82.0367 189° South 478 550 36,000  Level Atlanta Center
Fri 12:20:54 PM 34.3064 -82.0572 188° South 473 544 36,000  Level Atlanta Center
Fri 12:21:54 PM 34.1772 -82.0803 188° South 468 539 36,000  Level Atlanta Center
Fri 12:22:54 PM 34.0483 -82.1033 188° South 468 539 36,000  Level Atlanta Center
Fri 12:23:54 PM 33.9192 -82.1236 187° South 468 539 36,000  Level Atlanta Center
Fri 12:24:54 PM 33.7881 -82.1442 187° South 473 544 36,000  Level Atlanta Center
Fri 12:25:54 PM 33.6528 -82.1672 188° South 484 557 36,000  Level Atlanta Center
Fri 12:26:54 PM 33.5217 -82.1925 189° South 484 557 36,000  Level Atlanta Center
Fri 12:27:54 PM 33.3903 -82.2128 187° South 484 557 36,000  Level Atlanta Center
Fri 12:28:54 PM 33.2592 -82.2353 188° South 484 557 36,000  Level Atlanta Center
Fri 12:29:54 PM 33.1258 -82.2578 186° South 484 557 36,000  Level Atlanta Center
Fri 12:30:00 PM 33.1310 -82.2522 186° South  Level FlightAware Approximate
Fri 12:30:54 PM 32.9925 -82.2781 187° South 484 557 36,000  Level Atlanta Center
Fri 12:31:54 PM 32.8614 -82.2978 187° South 484 557 36,000  Level Atlanta Center
Fri 12:32:54 PM 32.7303 -82.3228 189° South 484 557 36,000  Level Atlanta Center
Fri 12:34:42 PM 32.4931 -82.3581 187° South 482 555 36,000  Level Jacksonville Center
Fri 12:35:42 PM 32.3764 -82.3761 187° South 482 555 36,000  Level Jacksonville Center
Fri 12:36:42 PM 32.2406 -82.3867 184° South 482 555 36,000  Level Jacksonville Center
Fri 12:37:42 PM 32.1092 -82.3800 178° South 482 555 36,000  Level Jacksonville Center
Fri 12:38:42 PM 31.9733 -82.3733 178° South 477 549 36,000  Level Jacksonville Center
Fri 12:39:42 PM 31.8378 -82.3644 177° South 477 549 36,000  Level Jacksonville Center
Fri 12:40:42 PM 31.7061 -82.3603 178° South 482 555 36,000  Level Jacksonville Center
Fri 12:41:42 PM 31.5725 -82.3536 178° South 482 555 36,000  Level Jacksonville Center
Fri 12:42:42 PM 31.4347 -82.3472 178° South 482 555 36,000  Level Jacksonville Center
Fri 12:43:42 PM 31.2864 -82.3456 179° South 482 555 36,000  Level Jacksonville Center
Fri 12:44:42 PM 31.1506 -82.3392 178° South 482 555 36,000  Level Jacksonville Center
Fri 12:45:42 PM 31.0169 -82.3325 178° South 482 555 36,000  Level Jacksonville Center
Fri 12:46:42 PM 30.8811 -82.3286 179° South 477 549 36,000  Level Jacksonville Center
Fri 12:47:42 PM 30.7456 -82.3222 178° South 482 555 36,000  Level Jacksonville Center
Fri 12:48:42 PM 30.6097 -82.3156 178° South 487 560 36,000  Level Jacksonville Center
Fri 12:49:42 PM 30.4781 -82.3044 176° South 487 560 36,000  Level Jacksonville Center
Fri 12:50:42 PM 30.3403 -82.2981 178° South 494 568 36,000  Level Jacksonville Center
Fri 12:51:42 PM 30.2067 -82.2822 174° South 494 568 36,000  Level Jacksonville Center
Fri 12:52:42 PM 30.0728 -82.2397 165° South 493 567 36,000 -200 Level Jacksonville Center
Fri 12:53:42 PM 29.9558 -82.2117 168° South 482 555 35,600 -500 Descending Jacksonville Center
Fri 12:54:42 PM 29.8303 -82.1767 166° South 477 549 35,000 -300 Descending Jacksonville Center
Fri 12:55:42 PM 29.6942 -82.1297 163° South 467 537 35,000  Level Jacksonville Center
Fri 12:56:42 PM 29.5667 -82.0950 167° South 467 537 35,000  Level Jacksonville Center
Fri 12:57:42 PM 29.4392 -82.0581 166° South 467 537 35,000  Level Jacksonville Center
Fri 12:58:42 PM 29.3242 -82.0303 168° South 467 537 35,000 -443 Level Jacksonville Center
Fri 01:00:38 PM 29.0758 -81.9564 165° South 460 529 33,700 -852 Descending Miami Center
Fri 01:01:38 PM 28.9436 -81.9172 165° South 472 543 32,500 -1,200 Descending Miami Center
Fri 01:02:38 PM 28.8156 -81.8853 168° South 477 549 31,300 -1,550 Descending Miami Center
Fri 01:03:38 PM 28.6917 -81.8489 166° South 472 543 29,400 -2,100 Descending Miami Center
Fri 01:04:38 PM 28.5739 -81.8131 165° South 454 522 27,100 -1,200 Descending Miami Center
Fri 01:05:38 PM 28.4625 -81.7819 166° South 438 504 27,000 -100 Descending Miami Center
Fri 01:06:38 PM 28.3364 -81.7481 167° South 426 490 26,900 -500 Descending Miami Center
Fri 01:07:38 PM 28.2414 -81.7206 166° South 414 476 26,000 -1,050 Descending Miami Center
Fri 01:08:38 PM 28.1358 -81.6900 166° South 402 463 24,800 -1,050 Descending Miami Center
Fri 01:09:38 PM 28.0322 -81.6739 172° South 390 449 23,900 -1,100 Descending Miami Center
Fri 01:10:38 PM 27.9331 -81.7025 194° South 369 425 22,600 -1,400 Descending Miami Center
Fri 01:11:38 PM 27.8383 -81.7314 195° South 369 425 21,100 -1,400 Descending Miami Center
Fri 01:12:38 PM 27.7478 -81.7556 193° South 345 397 19,800 -1,200 Descending Miami Center
Fri 01:13:38 PM 27.6556 -81.7658 186° South 340 391 18,700 -1,100 Descending Miami Center
Fri 01:14:38 PM 27.5519 -81.7450 170° South 334 384 17,600 -1,050 Descending Miami Center
Fri 01:15:38 PM 27.4758 -81.7089 157° South 334 384 16,600 -1,150 Descending Miami Center
Fri 01:16:38 PM 27.3897 -81.6633 155° Southeast 339 390 15,300 -1,300 Descending Miami Center
Fri 01:17:38 PM 27.3014 -81.6244 159° South 344 396 14,000 -1,400 Descending Miami Center
Fri 01:18:38 PM 27.2192 -81.5839 156° South 344 396 12,500 -1,450 Descending Miami Center
Fri 01:19:38 PM 27.1347 -81.5453 158° South 334 384 11,100 -1,250 Descending Miami Center
Fri 01:20:38 PM 27.0586 -81.5097 157° South 322 371 10,000 -550 Descending Miami Center
Fri 01:21:38 PM 26.9744 -81.4667 155° Southeast 307 353 10,000 -500 Level Miami Center
Fri 01:22:38 PM 26.9006 -81.4289 155° Southeast 297 342 9,000 -1,050 Descending Miami Center
Fri 01:23:38 PM 26.8306 -81.3936 156° South 288 331 7,900 -1,050 Descending Miami Center
Fri 01:24:38 PM 26.7536 -81.3906 178° South 278 320 6,900 -1,050 Descending Miami Center
Fri 01:25:38 PM 26.6739 -81.3992 186° South 283 326 5,800 -1,100 Descending Miami Center
Fri 01:27:00 PM 26.5189 -81.3994 193° South  Level FlightAware Approximate
Fri 01:34:00 PM 26.5333 -81.7500 318° Northwest  Level FlightAware Approximate
Fri 01:35:00 PM 26.5362 -81.7552 318° Northwest  Level Estimated
Fri 01:36:00 PM 26.5333 -81.7500 318° Northwest  Level FlightAware Approximate
Fri 01:37:00 PM 26.5362 -81.7552 318° Northwest  Level Estimated
Fri 01:38:00 PM 26.5333 -81.7500 318° Northwest  Level FlightAware Approximate
Fri 01:39:00 PM 26.5362 -81.7552 318° Northwest  Level Estimated
Fri 01:40:00 PM 26.5333 -81.7500 318° Northwest  Level FlightAware Approximate
Fri 01:41:00 PM 26.5362 -81.7552 318° Northwest  Level Estimated
Fri 01:42:00 PM 26.5333 -81.7500 318° Northwest  Level FlightAware Approximate
Fri 01:43:00 PM 26.5362 -81.7552 318° Northwest  Level Estimated
Fri 01:44:00 PM 26.5333 -81.7500 318° Northwest  Level FlightAware Approximate
Fri 01:45:00 PM 26.5362 -81.7552 318° Northwest  Level Estimated
Fri 01:46:00 PM 26.5333 -81.7500 318° Northwest  Level FlightAware Approximate
Fri 01:47:00 PM 26.5362 -81.7552 318° Northwest  Level Estimated

Login

Don't have an account? Register now (free) for customized features, flight alerts, and more!